PUA2603 SLLP-SPZO
Flight info
| Callsign | PUA2603 |
|---|---|
| Flight time | 0h 49m |
| Altitude | 38000 |
| Route | ELAKO UM657 JUL UV11 ILMOX |
| Aircraft | A20N/M-SDE2E3FGHIRWXY/LB1 |
Departure
| Time | 2026-04-25 04:08 |
|---|---|
| Airport | El Alto International Airport (SLLP) |
Arrival
| Time | 2026-04-25 04:58 |
|---|---|
| Airport | Alejandro Velasco Astete International Airport (SPZO) |
| Time | Latitude | Longitude | Altitude | Speed | Heading |
|---|---|---|---|---|---|
| 2026-04-25 03:43 | -16.50943 | -68.17761 | 13366 ft | 0 kts | 34° |
| 2026-04-25 03:58 | -16.50943 | -68.17762 | 13366 ft | 0 kts | 34° |
| 2026-04-25 03:58 | -16.50947 | -68.17765 | 13366 ft | 0 kts | 1° |
| 2026-04-25 03:59 | -16.50950 | -68.17764 | 13366 ft | 2 kts | 352° |
| 2026-04-25 03:59 | -16.50961 | -68.17763 | 13366 ft | 2 kts | 343° |
| 2026-04-25 03:59 | -16.50974 | -68.17757 | 13366 ft | 2 kts | 349° |
| 2026-04-25 03:59 | -16.50989 | -68.17752 | 13365 ft | 2 kts | 326° |
| 2026-04-25 04:00 | -16.51001 | -68.17742 | 13365 ft | 2 kts | 308° |
| 2026-04-25 04:00 | -16.51007 | -68.17731 | 13366 ft | 0 kts | 293° |
| 2026-04-25 04:02 | -16.51004 | -68.17741 | 13365 ft | 3 kts | 289° |
| 2026-04-25 04:02 | -16.50997 | -68.17791 | 13363 ft | 10 kts | 274° |
| 2026-04-25 04:02 | -16.51009 | -68.17886 | 13357 ft | 16 kts | 238° |
| 2026-04-25 04:02 | -16.51101 | -68.17993 | 13347 ft | 22 kts | 227° |
| 2026-04-25 04:03 | -16.51225 | -68.18133 | 13331 ft | 29 kts | 229° |
| 2026-04-25 04:03 | -16.51334 | -68.18329 | 13315 ft | 32 kts | 256° |
| 2026-04-25 04:03 | -16.51354 | -68.18570 | 13301 ft | 34 kts | 271° |
| 2026-04-25 04:03 | -16.51349 | -68.18753 | 13289 ft | 36 kts | 271° |
| 2026-04-25 04:04 | -16.51342 | -68.19024 | 13272 ft | 38 kts | 272° |
| 2026-04-25 04:04 | -16.51332 | -68.19302 | 13259 ft | 38 kts | 272° |
| 2026-04-25 04:04 | -16.51326 | -68.19585 | 13248 ft | 38 kts | 271° |
| 2026-04-25 04:04 | -16.51318 | -68.19866 | 13233 ft | 39 kts | 271° |
| 2026-04-25 04:05 | -16.51308 | -68.20161 | 13216 ft | 41 kts | 272° |
| 2026-04-25 04:05 | -16.51298 | -68.20458 | 13202 ft | 41 kts | 271° |
| 2026-04-25 04:05 | -16.51289 | -68.20768 | 13185 ft | 40 kts | 272° |
| 2026-04-25 04:05 | -16.51271 | -68.21004 | 13171 ft | 22 kts | 281° |
| 2026-04-25 04:06 | -16.51272 | -68.21054 | 13169 ft | 5 kts | 118° |
| 2026-04-25 04:06 | -16.51277 | -68.21043 | 13170 ft | 0 kts | 99° |
| 2026-04-25 04:07 | -16.51278 | -68.21018 | 13171 ft | 11 kts | 94° |
| 2026-04-25 04:07 | -16.51290 | -68.20680 | 13190 ft | 80 kts | 92° |
| 2026-04-25 04:07 | -16.51317 | -68.19882 | 13233 ft | 139 kts | 91° |
| 2026-04-25 04:07 | -16.51353 | -68.18690 | 13326 ft | 183 kts | 92° |
| 2026-04-25 04:08 | -16.51397 | -68.17344 | 13881 ft | 189 kts | 93° |
| 2026-04-25 04:08 | -16.51443 | -68.15944 | 14537 ft | 197 kts | 92° |
| 2026-04-25 04:08 | -16.51476 | -68.14526 | 15200 ft | 199 kts | 93° |
| 2026-04-25 04:08 | -16.51852 | -68.13108 | 15502 ft | 212 kts | 123° |
| 2026-04-25 04:09 | -16.53005 | -68.12083 | 15778 ft | 228 kts | 155° |
| 2026-04-25 04:09 | -16.54617 | -68.11868 | 16048 ft | 246 kts | 189° |
| 2026-04-25 04:09 | -16.56218 | -68.12743 | 16203 ft | 271 kts | 227° |
| 2026-04-25 04:09 | -16.57080 | -68.14518 | 16588 ft | 283 kts | 261° |
| 2026-04-25 04:10 | -16.57165 | -68.16568 | 17208 ft | 286 kts | 272° |
| 2026-04-25 04:10 | -16.57060 | -68.18632 | 17815 ft | 289 kts | 273° |
| 2026-04-25 04:10 | -16.56966 | -68.20747 | 18384 ft | 292 kts | 272° |
| 2026-04-25 04:10 | -16.56921 | -68.22861 | 18913 ft | 295 kts | 271° |
| 2026-04-25 04:11 | -16.56920 | -68.27139 | 19947 ft | 299 kts | 271° |
| 2026-04-25 04:11 | -16.56937 | -68.29331 | 20416 ft | 302 kts | 271° |
| 2026-04-25 04:11 | -16.56957 | -68.31522 | 20878 ft | 306 kts | 271° |
| 2026-04-25 04:12 | -16.57089 | -68.33748 | 21332 ft | 311 kts | 257° |
| 2026-04-25 04:12 | -16.57915 | -68.35841 | 21789 ft | 316 kts | 240° |
| 2026-04-25 04:12 | -16.59124 | -68.37835 | 22263 ft | 320 kts | 237° |
| 2026-04-25 04:12 | -16.60347 | -68.39773 | 22701 ft | 324 kts | 238° |
| 2026-04-25 04:13 | -16.61546 | -68.41747 | 23172 ft | 327 kts | 239° |
| 2026-04-25 04:13 | -16.62749 | -68.43810 | 23682 ft | 330 kts | 240° |
| 2026-04-25 04:13 | -16.63912 | -68.45854 | 24221 ft | 332 kts | 240° |
| 2026-04-25 04:13 | -16.65097 | -68.47955 | 24762 ft | 335 kts | 240° |
| 2026-04-25 04:14 | -16.66278 | -68.50074 | 25277 ft | 338 kts | 243° |
| 2026-04-25 04:14 | -16.66993 | -68.52426 | 25731 ft | 339 kts | 270° |
| 2026-04-25 04:14 | -16.66590 | -68.54859 | 26156 ft | 337 kts | 298° |
| 2026-04-25 04:14 | -16.65201 | -68.56857 | 26356 ft | 343 kts | 318° |
| 2026-04-25 04:15 | -16.63398 | -68.58590 | 26373 ft | 362 kts | 321° |
| 2026-04-25 04:15 | -16.61442 | -68.60407 | 26380 ft | 381 kts | 320° |
| 2026-04-25 04:15 | -16.59453 | -68.62312 | 26385 ft | 399 kts | 319° |
| 2026-04-25 04:15 | -16.57371 | -68.64363 | 26389 ft | 416 kts | 318° |
| 2026-04-25 04:16 | -16.55265 | -68.66477 | 26509 ft | 428 kts | 318° |
| 2026-04-25 04:16 | -16.53092 | -68.68682 | 26791 ft | 436 kts | 317° |
| 2026-04-25 04:16 | -16.50899 | -68.70922 | 27183 ft | 440 kts | 317° |
| 2026-04-25 04:16 | -16.48698 | -68.73176 | 27594 ft | 443 kts | 317° |
| 2026-04-25 04:17 | -16.46501 | -68.75428 | 27996 ft | 446 kts | 317° |
| 2026-04-25 04:17 | -16.44294 | -68.77689 | 28377 ft | 448 kts | 317° |
| 2026-04-25 04:17 | -16.42075 | -68.79964 | 28745 ft | 451 kts | 317° |
| 2026-04-25 04:17 | -16.39805 | -68.82291 | 29126 ft | 454 kts | 317° |
| 2026-04-25 04:18 | -16.37537 | -68.84615 | 29494 ft | 457 kts | 317° |
| 2026-04-25 04:18 | -16.35265 | -68.86943 | 29861 ft | 459 kts | 317° |
| 2026-04-25 04:18 | -16.32989 | -68.89274 | 30331 ft | 458 kts | 317° |
| 2026-04-25 04:18 | -16.30733 | -68.91583 | 30868 ft | 455 kts | 316° |
| 2026-04-25 04:19 | -16.28469 | -68.93900 | 31387 ft | 453 kts | 316° |
| 2026-04-25 04:19 | -16.26250 | -68.96172 | 31844 ft | 451 kts | 316° |
| 2026-04-25 04:19 | -16.24004 | -68.98470 | 32276 ft | 450 kts | 316° |
| 2026-04-25 04:19 | -16.21773 | -69.00752 | 32693 ft | 449 kts | 316° |
| 2026-04-25 04:20 | -16.19554 | -69.03021 | 33144 ft | 448 kts | 316° |
| 2026-04-25 04:20 | -16.17319 | -69.05308 | 33622 ft | 446 kts | 316° |
| 2026-04-25 04:20 | -16.15130 | -69.07549 | 34100 ft | 444 kts | 316° |
| 2026-04-25 04:20 | -16.12923 | -69.09804 | 34556 ft | 442 kts | 316° |
| 2026-04-25 04:21 | -16.10749 | -69.12025 | 34997 ft | 440 kts | 316° |
| 2026-04-25 04:21 | -16.08574 | -69.14246 | 35428 ft | 438 kts | 316° |
| 2026-04-25 04:21 | -16.06401 | -69.16464 | 35847 ft | 436 kts | 316° |
| 2026-04-25 04:21 | -16.04236 | -69.18674 | 36230 ft | 435 kts | 316° |
| 2026-04-25 04:22 | -16.02088 | -69.20865 | 36574 ft | 434 kts | 316° |
| 2026-04-25 04:22 | -15.99940 | -69.23055 | 36914 ft | 432 kts | 316° |
| 2026-04-25 04:22 | -15.97772 | -69.25267 | 37256 ft | 431 kts | 316° |
| 2026-04-25 04:22 | -15.95721 | -69.27496 | 37529 ft | 432 kts | 313° |
| 2026-04-25 04:23 | -15.93758 | -69.29882 | 37747 ft | 433 kts | 309° |
| 2026-04-25 04:23 | -15.91935 | -69.32378 | 37952 ft | 434 kts | 307° |
| 2026-04-25 04:23 | -15.90248 | -69.34994 | 38163 ft | 435 kts | 303° |
| 2026-04-25 04:23 | -15.88726 | -69.37670 | 38352 ft | 436 kts | 301° |
| 2026-04-25 04:24 | -15.87228 | -69.40447 | 38537 ft | 437 kts | 300° |
| 2026-04-25 04:24 | -15.85749 | -69.43204 | 38696 ft | 438 kts | 300° |
| 2026-04-25 04:24 | -15.84276 | -69.45944 | 38855 ft | 439 kts | 300° |
| 2026-04-25 04:25 | -15.81279 | -69.51508 | 38897 ft | 440 kts | 300° |
| 2026-04-25 04:25 | -15.78299 | -69.57023 | 38897 ft | 440 kts | 300° |
| 2026-04-25 04:26 | -15.75289 | -69.62587 | 38899 ft | 440 kts | 300° |
| 2026-04-25 04:26 | -15.72275 | -69.68153 | 38903 ft | 439 kts | 301° |
| 2026-04-25 04:27 | -15.69281 | -69.73679 | 38904 ft | 439 kts | 301° |
| 2026-04-25 04:27 | -15.66303 | -69.79171 | 38901 ft | 439 kts | 301° |
| 2026-04-25 04:28 | -15.63293 | -69.84718 | 38901 ft | 439 kts | 301° |
| 2026-04-25 04:28 | -15.60294 | -69.90242 | 38905 ft | 440 kts | 301° |
| 2026-04-25 04:29 | -15.57295 | -69.95763 | 38904 ft | 440 kts | 301° |
| 2026-04-25 04:29 | -15.54278 | -70.01316 | 38904 ft | 440 kts | 301° |
| 2026-04-25 04:30 | -15.51268 | -70.06840 | 38907 ft | 439 kts | 301° |
| 2026-04-25 04:30 | -15.47893 | -70.12080 | 38909 ft | 438 kts | 309° |
| 2026-04-25 04:31 | -15.43890 | -70.16836 | 38911 ft | 438 kts | 316° |
| 2026-04-25 04:31 | -15.39315 | -70.21032 | 38917 ft | 437 kts | 323° |
| 2026-04-25 04:32 | -15.34470 | -70.24892 | 38921 ft | 437 kts | 323° |
| 2026-04-25 04:32 | -15.29627 | -70.28736 | 38923 ft | 437 kts | 323° |
| 2026-04-25 04:33 | -15.24788 | -70.32583 | 38922 ft | 437 kts | 323° |
| 2026-04-25 04:33 | -15.19942 | -70.36438 | 38922 ft | 437 kts | 323° |
| 2026-04-25 04:34 | -15.15087 | -70.40298 | 38923 ft | 437 kts | 323° |
| 2026-04-25 04:34 | -15.10255 | -70.44138 | 38922 ft | 438 kts | 323° |
| 2026-04-25 04:35 | -15.05397 | -70.47998 | 38923 ft | 438 kts | 323° |
| 2026-04-25 04:35 | -15.00494 | -70.51890 | 38923 ft | 439 kts | 323° |
| 2026-04-25 04:36 | -14.95635 | -70.55746 | 38926 ft | 438 kts | 323° |
| 2026-04-25 04:36 | -14.90784 | -70.59594 | 38934 ft | 438 kts | 323° |
| 2026-04-25 04:37 | -14.85919 | -70.63449 | 38924 ft | 438 kts | 323° |
| 2026-04-25 04:37 | -14.81092 | -70.67273 | 38907 ft | 439 kts | 323° |
| 2026-04-25 04:37 | -14.78636 | -70.69218 | 38579 ft | 438 kts | 323° |
| 2026-04-25 04:38 | -14.76225 | -70.71127 | 38281 ft | 435 kts | 323° |
| 2026-04-25 04:38 | -14.73824 | -70.73029 | 37983 ft | 433 kts | 323° |
| 2026-04-25 04:38 | -14.71433 | -70.74922 | 37686 ft | 431 kts | 323° |
| 2026-04-25 04:38 | -14.69053 | -70.76806 | 37390 ft | 431 kts | 323° |
| 2026-04-25 04:39 | -14.66667 | -70.78696 | 37054 ft | 432 kts | 323° |
| 2026-04-25 04:39 | -14.64262 | -70.80598 | 36582 ft | 433 kts | 323° |
| 2026-04-25 04:39 | -14.61895 | -70.82470 | 35998 ft | 433 kts | 324° |
| 2026-04-25 04:39 | -14.59484 | -70.84373 | 35418 ft | 429 kts | 324° |
| 2026-04-25 04:40 | -14.57120 | -70.86237 | 35034 ft | 423 kts | 324° |
| 2026-04-25 04:40 | -14.54764 | -70.88092 | 34580 ft | 420 kts | 324° |
| 2026-04-25 04:40 | -14.52448 | -70.89915 | 34107 ft | 417 kts | 324° |
| 2026-04-25 04:40 | -14.50148 | -70.91727 | 33644 ft | 414 kts | 324° |
| 2026-04-25 04:41 | -14.47862 | -70.93529 | 33191 ft | 410 kts | 324° |
| 2026-04-25 04:41 | -14.45568 | -70.95337 | 32737 ft | 407 kts | 324° |
| 2026-04-25 04:41 | -14.43306 | -70.97119 | 32317 ft | 405 kts | 324° |
| 2026-04-25 04:41 | -14.41074 | -70.98879 | 31887 ft | 402 kts | 324° |
| 2026-04-25 04:42 | -14.38863 | -71.00622 | 31469 ft | 398 kts | 324° |
| 2026-04-25 04:42 | -14.36636 | -71.02376 | 31022 ft | 396 kts | 324° |
| 2026-04-25 04:42 | -14.34444 | -71.04103 | 30576 ft | 393 kts | 324° |
| 2026-04-25 04:42 | -14.32282 | -71.05804 | 30123 ft | 391 kts | 324° |
| 2026-04-25 04:43 | -14.30123 | -71.07503 | 29674 ft | 389 kts | 324° |
| 2026-04-25 04:43 | -14.27932 | -71.09226 | 29216 ft | 387 kts | 324° |
| 2026-04-25 04:43 | -14.25764 | -71.10931 | 28777 ft | 384 kts | 324° |
| 2026-04-25 04:43 | -14.23589 | -71.12641 | 28350 ft | 382 kts | 324° |
| 2026-04-25 04:44 | -14.21430 | -71.14339 | 27909 ft | 380 kts | 324° |
| 2026-04-25 04:44 | -14.19331 | -71.15988 | 27489 ft | 378 kts | 324° |
| 2026-04-25 04:44 | -14.17226 | -71.17643 | 27070 ft | 376 kts | 324° |
| 2026-04-25 04:44 | -14.15142 | -71.19280 | 26652 ft | 375 kts | 324° |
| 2026-04-25 04:45 | -14.13047 | -71.20926 | 26232 ft | 373 kts | 324° |
| 2026-04-25 04:45 | -14.10994 | -71.22538 | 25823 ft | 370 kts | 324° |
| 2026-04-25 04:45 | -14.08945 | -71.24147 | 25405 ft | 369 kts | 324° |
| 2026-04-25 04:45 | -14.06891 | -71.25759 | 25004 ft | 366 kts | 324° |
| 2026-04-25 04:46 | -14.04880 | -71.27338 | 24624 ft | 363 kts | 324° |
| 2026-04-25 04:46 | -14.02869 | -71.28917 | 24230 ft | 361 kts | 324° |
| 2026-04-25 04:46 | -14.00867 | -71.30486 | 23841 ft | 358 kts | 324° |
| 2026-04-25 04:46 | -13.98878 | -71.32046 | 23480 ft | 356 kts | 324° |
| 2026-04-25 04:47 | -13.96925 | -71.33577 | 23111 ft | 355 kts | 324° |
| 2026-04-25 04:47 | -13.94949 | -71.35126 | 22725 ft | 355 kts | 324° |
| 2026-04-25 04:47 | -13.92966 | -71.36678 | 22315 ft | 354 kts | 324° |
| 2026-04-25 04:47 | -13.91018 | -71.38206 | 21919 ft | 347 kts | 324° |
| 2026-04-25 04:48 | -13.89117 | -71.39696 | 21529 ft | 338 kts | 324° |
| 2026-04-25 04:48 | -13.87267 | -71.41148 | 21153 ft | 331 kts | 324° |
| 2026-04-25 04:48 | -13.85422 | -71.42593 | 20781 ft | 326 kts | 324° |
| 2026-04-25 04:48 | -13.83582 | -71.44033 | 20411 ft | 324 kts | 324° |
| 2026-04-25 04:49 | -13.81795 | -71.45432 | 20040 ft | 325 kts | 324° |
| 2026-04-25 04:49 | -13.79991 | -71.46845 | 19649 ft | 327 kts | 324° |
| 2026-04-25 04:49 | -13.78183 | -71.48259 | 19269 ft | 322 kts | 324° |
| 2026-04-25 04:49 | -13.76420 | -71.49642 | 19121 ft | 310 kts | 324° |
| 2026-04-25 04:50 | -13.74742 | -71.50957 | 18970 ft | 299 kts | 325° |
| 2026-04-25 04:50 | -13.73098 | -71.52246 | 18889 ft | 289 kts | 325° |
| 2026-04-25 04:50 | -13.71500 | -71.53495 | 18877 ft | 289 kts | 325° |
| 2026-04-25 04:50 | -13.69882 | -71.54758 | 18863 ft | 289 kts | 325° |
| 2026-04-25 04:51 | -13.68291 | -71.56001 | 18856 ft | 289 kts | 325° |
| 2026-04-25 04:51 | -13.66687 | -71.57254 | 18793 ft | 286 kts | 325° |
| 2026-04-25 04:51 | -13.65142 | -71.58551 | 18485 ft | 286 kts | 313° |
| 2026-04-25 04:51 | -13.64170 | -71.60312 | 18081 ft | 290 kts | 290° |
| 2026-04-25 04:52 | -13.63526 | -71.62301 | 17663 ft | 292 kts | 289° |
| 2026-04-25 04:52 | -13.62909 | -71.64264 | 17121 ft | 291 kts | 289° |
| 2026-04-25 04:52 | -13.62262 | -71.66234 | 16493 ft | 291 kts | 290° |
| 2026-04-25 04:52 | -13.61688 | -71.68256 | 15646 ft | 299 kts | 283° |
| 2026-04-25 04:53 | -13.61246 | -71.70288 | 15371 ft | 281 kts | 287° |
| 2026-04-25 04:53 | -13.60679 | -71.72109 | 15329 ft | 259 kts | 292° |
| 2026-04-25 04:53 | -13.60055 | -71.73791 | 15151 ft | 242 kts | 293° |
| 2026-04-25 04:53 | -13.59447 | -71.75360 | 14826 ft | 229 kts | 294° |
| 2026-04-25 04:54 | -13.58857 | -71.76856 | 14224 ft | 225 kts | 294° |
| 2026-04-25 04:54 | -13.58258 | -71.78361 | 13391 ft | 232 kts | 294° |
| 2026-04-25 04:54 | -13.57662 | -71.79863 | 12939 ft | 217 kts | 294° |
| 2026-04-25 04:54 | -13.57126 | -71.81226 | 12871 ft | 193 kts | 294° |
| 2026-04-25 04:55 | -13.56666 | -71.82470 | 12689 ft | 179 kts | 292° |
| 2026-04-25 04:55 | -13.56279 | -71.83627 | 12463 ft | 165 kts | 291° |
| 2026-04-25 04:55 | -13.55909 | -71.84749 | 12276 ft | 164 kts | 292° |
| 2026-04-25 04:55 | -13.55466 | -71.85826 | 12078 ft | 163 kts | 299° |
| 2026-04-25 04:56 | -13.54904 | -71.86838 | 11868 ft | 162 kts | 304° |
| 2026-04-25 04:56 | -13.54359 | -71.87846 | 11661 ft | 163 kts | 295° |
| 2026-04-25 04:56 | -13.54038 | -71.88974 | 11459 ft | 165 kts | 281° |
| 2026-04-25 04:56 | -13.53925 | -71.90143 | 11254 ft | 165 kts | 275° |
| 2026-04-25 04:57 | -13.53832 | -71.91325 | 10994 ft | 164 kts | 279° |
| 2026-04-25 04:57 | -13.53707 | -71.92491 | 10813 ft | 163 kts | 278° |
| 2026-04-25 04:57 | -13.53586 | -71.93610 | 10798 ft | 138 kts | 277° |
| 2026-04-25 04:57 | -13.53524 | -71.94289 | 10828 ft | 50 kts | 275° |
| 2026-04-25 04:58 | -13.53499 | -71.94568 | 10841 ft | 35 kts | 276° |
| 2026-04-25 04:58 | -13.53479 | -71.94796 | 10852 ft | 26 kts | 276° |
| 2026-04-25 04:58 | -13.53549 | -71.94937 | 10861 ft | 20 kts | 197° |
| 2026-04-25 04:58 | -13.53615 | -71.94837 | 10857 ft | 20 kts | 98° |
| 2026-04-25 04:59 | -13.53633 | -71.94673 | 10848 ft | 25 kts | 97° |
| 2026-04-25 04:59 | -13.53658 | -71.94495 | 10838 ft | 17 kts | 122° |
| 2026-04-25 04:59 | -13.53730 | -71.94418 | 10835 ft | 7 kts | 117° |
| 2026-04-25 04:59 | -13.53740 | -71.94395 | 10834 ft | 0 kts | 119° |